Terminal Aerodrome Forecast
Issued by NWS Twin Cities, MN

Home | Current Version | Previous Version | Graphics & Text | Print | Product List | Glossary On
Versions: 1 2 3 4 5 6 7 8 9 10 11 12 13 14 15 16 17 18 19 20 21 22 23 24 25 26 27 28
000
FTUS43 KMPX 030850 AAA
TAFMSP
TAF AMD
KMSP 030850Z 0309/0412 13008KT P6SM OVC070
     FM031100 13007KT 3SM -SN OVC025
     FM031200 14005KT 1 1/2SM -SN OVC015
      TEMPO 0314/0316 1SM -SN VV008
     FM031700 29012G20KT 3SM -SN BKN007 OVC015
     FM031900 31022G32KT 6SM BLSN FEW007 BKN025
     FM032300 29018G26KT P6SM FEW025 SCT050=

USA.gov is the U.S. government's official web portal to all federal, state and local government web resources and services.